Time;durP1;ratioP1;P1;durP2;ratioP2;P2;SDS_P1;SDS_P2;PMS_P1;PMS_P2;Temp;Humidity;BMP_temperature;BMP_pressure;BME280_temperature;BME280_humidity;BME280_pressure;Samples;Min_cycle;Max_cycle;Signal;HPM_P1;HPM_P2
2023/01/12 00:00:48;0.00;0.00;0.62;0.00;0.00;0.62;2.63;1.20;;;22.70;28.30;;;;;;2252981;61;20382;-52
2023/01/12 00:03:33;0.00;0.00;0.62;0.00;0.00;0.62;3.73;1.17;;;22.70;28.30;;;;;;2252337;61;20390;-51
2023/01/12 00:06:19;0.00;0.00;0.62;0.00;0.00;0.62;2.17;1.13;;;22.70;28.30;;;;;;2253014;61;20432;-54
2023/01/12 00:09:07;0.00;0.00;0.62;0.00;0.00;0.62;2.27;1.13;;;22.70;28.30;;;;;;2252681;61;20370;-53
2023/01/12 00:11:52;0.00;0.00;0.62;0.00;0.00;0.62;2.60;1.30;;;22.70;28.30;;;;;;2252242;61;20434;-53
2023/01/12 00:14:39;0.00;0.00;0.62;0.00;0.00;0.62;2.60;0.97;;;22.70;28.40;;;;;;2252605;61;20419;-55
2023/01/12 00:17:23;0.00;0.00;0.62;0.00;0.00;0.62;3.10;1.57;;;22.70;28.40;;;;;;2251285;61;20398;-54
2023/01/12 00:20:10;0.00;0.00;0.62;0.00;0.00;0.62;1.80;1.03;;;22.70;28.30;;;;;;2252256;61;20437;-56
2023/01/12 00:22:55;0.00;0.00;0.62;0.00;0.00;0.62;2.80;1.20;;;22.70;28.40;;;;;;2252121;61;20437;-52
2023/01/12 00:25:40;0.00;0.00;0.62;0.00;0.00;0.62;1.70;1.10;;;22.70;28.40;;;;;;2251626;61;20366;-50
2023/01/12 00:28:25;0.00;0.00;0.62;0.00;0.00;0.62;2.50;1.10;;;22.70;28.30;;;;;;2252218;61;20779;-55
2023/01/12 00:31:11;0.00;0.00;0.62;0.00;0.00;0.62;1.90;1.00;;;22.70;28.30;;;;;;2251722;61;20370;-52
2023/01/12 00:33:56;0.00;0.00;0.62;0.00;0.00;0.62;1.97;0.90;;;22.70;28.30;;;;;;2251818;61;20374;-50
2023/01/12 00:36:40;0.00;0.00;0.62;0.00;0.00;0.62;2.10;1.00;;;22.70;28.30;;;;;;2251958;61;20442;-53
2023/01/12 00:39:25;0.00;0.00;0.62;0.00;0.00;0.62;2.30;1.13;;;22.70;28.20;;;;;;2251451;61;20367;-49
2023/01/12 00:45:21;0.00;0.00;0.62;0.00;0.00;0.62;1.73;0.70;;;22.70;28.30;;;;;;2251581;61;20765;-53
2023/01/12 00:48:12;0.00;0.00;0.62;0.00;0.00;0.62;1.97;1.03;;;22.70;28.30;;;;;;2251647;61;20366;-53
2023/01/12 00:50:56;0.00;0.00;0.62;0.00;0.00;0.62;2.70;1.00;;;22.70;28.30;;;;;;2251832;61;20367;-49
2023/01/12 00:53:41;0.00;0.00;0.62;0.00;0.00;0.62;1.80;0.93;;;22.70;28.30;;;;;;2251587;61;20970;-53
2023/01/12 00:56:26;0.00;0.00;0.62;0.00;0.00;0.62;1.90;1.00;;;22.70;28.30;;;;;;2256409;61;20498;-52
2023/01/12 00:59:10;0.00;0.00;0.62;0.00;0.00;0.62;1.87;1.13;;;22.70;28.30;;;;;;2256705;61;20414;-54
2023/01/12 01:01:56;0.00;0.00;0.62;0.00;0.00;0.62;2.33;1.13;;;22.70;28.30;;;;;;2256410;61;20419;-56
2023/01/12 01:04:42;0.00;0.00;0.62;0.00;0.00;0.62;1.73;0.90;;;22.70;28.30;;;;;;2255961;61;20957;-53
2023/01/12 01:07:27;0.00;0.00;0.62;0.00;0.00;0.62;2.00;0.90;;;22.70;28.20;;;;;;2256542;61;20413;-56
2023/01/12 01:10:12;0.00;0.00;0.62;0.00;0.00;0.62;1.50;0.90;;;22.70;28.20;;;;;;2256999;61;20915;-57
2023/01/12 01:12:57;0.00;0.00;0.62;0.00;0.00;0.62;2.27;1.20;;;22.70;28.20;;;;;;2256912;61;20491;-57
2023/01/12 01:15:41;0.00;0.00;0.62;0.00;0.00;0.62;2.47;1.20;;;22.70;28.20;;;;;;2256822;61;20391;-58
2023/01/12 01:18:27;0.00;0.00;0.62;0.00;0.00;0.62;2.63;1.20;;;22.70;28.20;;;;;;2256171;61;20362;-58
2023/01/12 01:21:13;0.00;0.00;0.62;0.00;0.00;0.62;1.70;1.00;;;22.70;28.20;;;;;;2256994;61;20738;-56
2023/01/12 01:23:59;0.00;0.00;0.62;0.00;0.00;0.62;1.67;0.90;;;22.70;28.10;;;;;;2258877;61;20359;-56
2023/01/12 01:26:43;0.00;0.00;0.62;0.00;0.00;0.62;1.97;0.90;;;22.70;28.20;;;;;;2256608;61;20697;-57
2023/01/12 01:29:28;0.00;0.00;0.62;0.00;0.00;0.62;1.50;0.80;;;22.70;28.20;;;;;;2256632;61;20959;-58
2023/01/12 01:32:13;0.00;0.00;0.62;0.00;0.00;0.62;1.60;0.90;;;22.70;28.10;;;;;;2256211;61;20389;-55
2023/01/12 01:34:57;0.00;0.00;0.62;0.00;0.00;0.62;2.33;0.80;;;22.70;28.20;;;;;;2256846;61;20426;-58
2023/01/12 01:37:43;0.00;0.00;0.62;0.00;0.00;0.62;2.07;1.10;;;22.70;28.10;;;;;;2255965;61;20363;-57
2023/01/12 01:40:28;0.00;0.00;0.62;0.00;0.00;0.62;2.10;1.20;;;22.70;28.10;;;;;;2255426;61;20437;-57
2023/01/12 01:43:15;0.00;0.00;0.62;0.00;0.00;0.62;2.10;1.07;;;22.70;28.20;;;;;;2256056;61;20398;-61
2023/01/12 01:46:06;0.00;0.00;0.62;0.00;0.00;0.62;2.27;0.93;;;22.70;28.30;;;;;;2253678;61;20402;-60
2023/01/12 01:48:51;0.00;0.00;0.62;0.00;0.00;0.62;1.87;0.90;;;22.70;28.50;;;;;;2254478;61;20445;-60
2023/01/12 01:51:36;0.00;0.00;0.62;0.00;0.00;0.62;1.70;0.80;;;22.70;28.30;;;;;;2255842;61;20390;-61
2023/01/12 01:54:22;0.00;0.00;0.62;0.00;0.00;0.62;1.57;1.00;;;22.70;28.30;;;;;;2254831;61;20445;-60
2023/01/12 01:57:09;0.00;0.00;0.62;0.00;0.00;0.62;1.90;0.83;;;22.70;28.20;;;;;;2255236;61;20892;-60
2023/01/12 01:59:57;0.00;0.00;0.62;0.00;0.00;0.62;1.90;0.97;;;22.70;28.20;;;;;;2254945;61;20410;-60
2023/01/12 02:02:45;0.00;0.00;0.62;0.00;0.00;0.62;1.60;0.83;;;22.70;28.20;;;;;;2251707;61;20390;-61
2023/01/12 02:05:29;0.00;0.00;0.62;0.00;0.00;0.62;1.70;0.80;;;22.70;28.10;;;;;;2258104;61;20950;-60
2023/01/12 02:08:23;0.00;0.00;0.62;0.00;0.00;0.62;1.83;1.00;;;22.70;28.10;;;;;;2254856;61;20366;-60
2023/01/12 02:17:35;0.00;0.00;0.62;0.00;0.00;0.62;2.07;0.80;;;22.70;28.10;;;;;;2250470;61;20375;-60
2023/01/12 02:20:41;0.00;0.00;0.62;0.00;0.00;0.62;1.93;0.80;;;22.70;28.10;;;;;;2255248;61;20369;-60
2023/01/12 02:24:34;0.00;0.00;0.62;0.00;0.00;0.62;1.60;0.80;;;22.70;28.10;;;;;;2254075;61;20382;-61
2023/01/12 02:27:46;0.00;0.00;0.62;0.00;0.00;0.62;4.40;0.90;;;22.70;28.20;;;;;;2254867;61;20359;-60
2023/01/12 02:31:14;0.00;0.00;0.62;0.00;0.00;0.62;2.37;1.00;;;22.70;28.20;;;;;;2254203;61;20371;-59
2023/01/12 02:34:13;0.00;0.00;0.62;0.00;0.00;0.62;2.43;0.97;;;22.60;27.90;;;;;;2255570;61;20378;-60
2023/01/12 02:37:10;0.00;0.00;0.62;0.00;0.00;0.62;2.20;1.30;;;22.60;27.70;;;;;;2254181;61;20436;-59
2023/01/12 02:40:04;0.00;0.00;0.62;0.00;0.00;0.62;3.70;1.20;;;22.50;27.50;;;;;;2254653;61;20363;-56
2023/01/12 02:43:01;0.00;0.00;0.62;0.00;0.00;0.62;2.20;1.20;;;22.40;27.30;;;;;;2255387;61;20390;-58
2023/01/12 02:45:51;0.00;0.00;0.62;0.00;0.00;0.62;2.70;1.10;;;22.40;27.30;;;;;;2254316;61;20450;-56
2023/01/12 02:48:43;0.00;0.00;0.62;0.00;0.00;0.62;2.83;1.23;;;22.30;27.30;;;;;;2255037;61;20447;-60
2023/01/12 02:51:33;0.00;0.00;0.62;0.00;0.00;0.62;2.93;1.27;;;22.20;27.20;;;;;;2254232;61;20838;-60
2023/01/12 02:54:20;0.00;0.00;0.62;0.00;0.00;0.62;3.30;1.17;;;22.20;27.20;;;;;;2254632;61;20358;-60
2023/01/12 02:57:26;0.00;0.00;0.62;0.00;0.00;0.62;3.90;1.37;;;22.10;27.10;;;;;;2254927;61;20367;-60
2023/01/12 03:00:16;0.00;0.00;0.62;0.00;0.00;0.62;2.83;1.30;;;22.10;27.00;;;;;;2251357;61;20358;-60
2023/01/12 03:03:01;0.00;0.00;0.62;0.00;0.00;0.62;3.47;1.50;;;22.00;27.00;;;;;;2251669;61;20387;-58
2023/01/12 03:05:47;0.00;0.00;0.62;0.00;0.00;0.62;3.93;1.77;;;21.90;26.90;;;;;;2251825;61;20451;-61
2023/01/12 03:08:37;0.00;0.00;0.62;0.00;0.00;0.62;3.57;1.60;;;21.90;27.00;;;;;;2251356;61;20374;-57
2023/01/12 03:11:23;0.00;0.00;0.62;0.00;0.00;0.62;5.73;1.50;;;21.80;27.00;;;;;;2252044;61;20968;-58
2023/01/12 03:14:10;0.00;0.00;0.62;0.00;0.00;0.62;3.83;1.70;;;21.70;26.90;;;;;;2251027;61;20417;-58
2023/01/12 03:16:56;0.00;0.00;0.62;0.00;0.00;0.62;2.17;1.40;;;21.70;27.00;;;;;;2251323;61;20438;-61
2023/01/12 03:19:44;0.00;0.00;0.62;0.00;0.00;0.62;3.50;1.43;;;21.70;27.10;;;;;;2252020;61;20491;-60
2023/01/12 03:22:35;0.00;0.00;0.62;0.00;0.00;0.62;2.80;1.33;;;21.60;27.20;;;;;;2250920;61;20409;-61
2023/01/12 03:25:22;0.00;0.00;0.62;0.00;0.00;0.62;3.47;1.30;;;21.50;27.20;;;;;;2251564;61;20918;-61
2023/01/12 03:28:09;0.00;0.00;0.62;0.00;0.00;0.62;1.80;0.90;;;21.50;27.30;;;;;;2251376;61;20413;-57
2023/01/12 03:30:59;0.00;0.00;0.62;0.00;0.00;0.62;3.20;0.97;;;21.40;27.20;;;;;;2253648;61;20366;-59
2023/01/12 03:33:44;0.00;0.00;0.62;0.00;0.00;0.62;4.03;1.50;;;21.40;27.20;;;;;;2252030;61;20422;-60
2023/01/12 03:36:47;0.00;0.00;0.62;0.00;0.00;0.62;2.83;1.50;;;21.30;27.80;;;;;;2251614;61;20481;-58
2023/01/12 03:39:44;0.00;0.00;0.62;0.00;0.00;0.62;3.70;1.30;;;21.30;27.30;;;;;;2251285;61;20390;-59
2023/01/12 03:42:37;0.00;0.00;0.62;0.00;0.00;0.62;4.70;1.23;;;21.20;27.40;;;;;;2251500;61;20383;-58
2023/01/12 03:45:30;0.00;0.00;0.62;0.00;0.00;0.62;4.60;1.30;;;21.20;27.50;;;;;;2250976;61;20382;-61
2023/01/12 03:48:20;0.00;0.00;0.62;0.00;0.00;0.62;3.50;1.23;;;21.10;27.40;;;;;;2251459;61;20379;-58
2023/01/12 03:51:11;0.00;0.00;0.62;0.00;0.00;0.62;3.10;1.47;;;21.10;27.40;;;;;;2252282;61;20366;-60
2023/01/12 03:53:57;0.00;0.00;0.62;0.00;0.00;0.62;2.30;1.30;;;21.10;27.40;;;;;;2252039;61;20746;-60
2023/01/12 03:56:45;0.00;0.00;0.62;0.00;0.00;0.62;2.70;0.93;;;21.00;27.30;;;;;;2251963;61;20387;-59
2023/01/12 03:59:32;0.00;0.00;0.62;0.00;0.00;0.62;2.10;1.10;;;21.00;27.30;;;;;;2252303;61;20440;-60
2023/01/12 04:02:17;0.00;0.00;0.62;0.00;0.00;0.62;2.73;1.10;;;21.00;27.30;;;;;;2255567;61;20646;-61
2023/01/12 04:05:02;0.00;0.00;0.62;0.00;0.00;0.62;2.37;1.40;;;20.90;27.40;;;;;;2255791;61;20955;-61
2023/01/12 04:07:46;0.00;0.00;0.62;0.00;0.00;0.62;2.80;1.30;;;20.90;27.50;;;;;;2255080;61;20367;-57
2023/01/12 04:10:31;0.00;0.00;0.62;0.00;0.00;0.62;3.03;1.50;;;20.90;27.60;;;;;;2255918;61;20394;-57
2023/01/12 04:13:17;0.00;0.00;0.62;0.00;0.00;0.62;2.80;1.20;;;20.80;27.70;;;;;;2255176;61;20390;-60
2023/01/12 04:16:02;0.00;0.00;0.62;0.00;0.00;0.62;2.80;1.40;;;20.80;27.80;;;;;;2255857;61;20386;-60
2023/01/12 04:18:47;0.00;0.00;0.62;0.00;0.00;0.62;2.83;1.23;;;20.80;27.90;;;;;;2255693;61;20421;-59
2023/01/12 04:24:35;0.00;0.00;0.62;0.00;0.00;0.62;3.10;1.10;;;20.80;28.00;;;;;;2255147;61;20362;-59
2023/01/12 04:27:20;0.00;0.00;0.62;0.00;0.00;0.62;2.53;1.20;;;20.80;28.10;;;;;;2255278;61;20359;-61
2023/01/12 04:30:08;0.00;0.00;0.62;0.00;0.00;0.62;2.43;1.10;;;20.70;28.10;;;;;;2255904;61;20879;-59
2023/01/12 04:32:54;0.00;0.00;0.62;0.00;0.00;0.62;1.97;1.10;;;20.80;28.20;;;;;;2255675;61;20914;-59
2023/01/12 04:35:40;0.00;0.00;0.62;0.00;0.00;0.62;1.90;1.10;;;20.80;28.30;;;;;;2252186;61;20462;-61
2023/01/12 04:38:25;0.00;0.00;0.62;0.00;0.00;0.62;2.50;1.30;;;20.70;28.20;;;;;;2255061;61;20362;-60
2023/01/12 04:41:13;0.00;0.00;0.62;0.00;0.00;0.62;1.83;0.90;;;20.70;28.30;;;;;;2255523;61;20378;-61
2023/01/12 04:43:58;0.00;0.00;0.62;0.00;0.00;0.62;6.40;1.20;;;20.70;28.30;;;;;;2255433;61;20510;-58
2023/01/12 04:46:44;0.00;0.00;0.62;0.00;0.00;0.62;2.03;1.23;;;20.70;28.30;;;;;;2255200;61;20910;-59
2023/01/12 04:49:31;0.00;0.00;0.62;0.00;0.00;0.62;2.33;1.23;;;20.70;28.40;;;;;;2253029;61;20459;-61
2023/01/12 04:52:15;0.00;0.00;0.62;0.00;0.00;0.62;2.20;0.80;;;20.70;28.40;;;;;;2251876;61;20433;-59
2023/01/12 04:55:00;0.00;0.00;0.62;0.00;0.00;0.62;4.23;1.27;;;20.70;28.40;;;;;;2252232;61;20363;-62
2023/01/12 04:57:45;0.00;0.00;0.62;0.00;0.00;0.62;2.97;1.00;;;20.70;28.40;;;;;;2251892;61;20410;-60
2023/01/12 05:00:30;0.00;0.00;0.62;0.00;0.00;0.62;2.23;1.00;;;20.60;28.40;;;;;;2251626;61;20783;-60
2023/01/12 05:03:17;0.00;0.00;0.62;0.00;0.00;0.62;2.23;0.80;;;20.60;28.40;;;;;;2252097;61;20914;-60
2023/01/12 05:06:02;0.00;0.00;0.62;0.00;0.00;0.62;2.00;1.10;;;20.60;28.90;;;;;;2251496;61;20417;-59
2023/01/12 05:11:51;0.00;0.00;0.62;0.00;0.00;0.62;4.73;1.30;;;20.60;28.50;;;;;;2252014;61;20780;-58
2023/01/12 05:14:35;0.00;0.00;0.62;0.00;0.00;0.62;2.77;0.93;;;20.60;28.50;;;;;;2251102;61;20452;-61
2023/01/12 05:17:20;0.00;0.00;0.62;0.00;0.00;0.62;2.23;1.00;;;20.60;28.60;;;;;;2251818;61;20422;-59
2023/01/12 05:20:08;0.00;0.00;0.62;0.00;0.00;0.62;1.60;0.90;;;20.60;28.60;;;;;;2251980;61;20957;-59
2023/01/12 05:22:53;0.00;0.00;0.62;0.00;0.00;0.62;2.03;0.90;;;20.60;28.70;;;;;;2251764;61;20493;-58
2023/01/12 05:25:38;0.00;0.00;0.62;0.00;0.00;0.62;2.67;1.00;;;20.60;28.60;;;;;;2251806;61;20358;-58
2023/01/12 05:28:23;0.00;0.00;0.62;0.00;0.00;0.62;2.33;0.90;;;20.60;28.70;;;;;;2251128;61;20422;-60
2023/01/12 05:31:10;0.00;0.00;0.62;0.00;0.00;0.62;5.00;0.93;;;20.60;28.70;;;;;;2251908;61;20422;-59
2023/01/12 05:33:54;0.00;0.00;0.62;0.00;0.00;0.62;2.40;1.20;;;20.60;28.70;;;;;;2252083;61;20848;-60
2023/01/12 05:36:40;0.00;0.00;0.62;0.00;0.00;0.62;2.00;1.03;;;20.60;28.70;;;;;;2251416;61;20430;-59
2023/01/12 05:39:25;0.00;0.00;0.62;0.00;0.00;0.62;1.70;0.80;;;20.60;28.70;;;;;;2252052;61;20453;-59
2023/01/12 05:45:14;0.00;0.00;0.62;0.00;0.00;0.62;1.83;0.97;;;20.60;28.80;;;;;;2251721;61;20485;-60
2023/01/12 05:48:00;0.00;0.00;0.62;0.00;0.00;0.62;1.70;1.07;;;20.60;28.80;;;;;;2251890;61;20426;-60
2023/01/12 05:50:45;0.00;0.00;0.62;0.00;0.00;0.62;3.00;0.97;;;20.60;28.80;;;;;;2251373;61;20362;-58
2023/01/12 05:53:32;0.00;0.00;0.62;0.00;0.00;0.62;3.20;1.20;;;20.60;28.80;;;;;;2251824;61;20453;-59
2023/01/12 05:56:20;0.00;0.00;0.62;0.00;0.00;0.62;2.00;1.00;;;20.60;28.80;;;;;;2251544;61;20479;-58
2023/01/12 05:59:05;0.00;0.00;0.62;0.00;0.00;0.62;2.17;1.13;;;20.60;28.80;;;;;;2251561;61;20478;-60
2023/01/12 06:01:50;0.00;0.00;0.62;0.00;0.00;0.62;3.10;1.03;;;20.60;28.70;;;;;;2251943;61;20383;-58
2023/01/12 06:04:34;0.00;0.00;0.62;0.00;0.00;0.62;1.90;1.10;;;20.50;28.70;;;;;;2248752;61;20934;-60
2023/01/12 06:07:19;0.00;0.00;0.62;0.00;0.00;0.62;2.50;1.03;;;20.50;28.70;;;;;;2251828;61;20355;-59
2023/01/12 06:10:07;0.00;0.00;0.62;0.00;0.00;0.62;2.00;0.90;;;20.50;28.80;;;;;;2251109;61;20375;-59
2023/01/12 06:16:03;0.00;0.00;0.62;0.00;0.00;0.62;1.60;0.90;;;20.50;28.70;;;;;;2251994;61;20402;-60
2023/01/12 06:18:48;0.00;0.00;0.62;0.00;0.00;0.62;1.60;0.80;;;20.50;29.30;;;;;;2251537;61;20359;-61
2023/01/12 06:21:33;0.00;0.00;0.62;0.00;0.00;0.62;1.40;0.77;;;20.40;28.70;;;;;;2251569;61;20894;-59
2023/01/12 06:24:18;0.00;0.00;0.62;0.00;0.00;0.62;1.40;0.77;;;20.40;28.70;;;;;;2251815;61;20626;-61
2023/01/12 06:27:04;0.00;0.00;0.62;0.00;0.00;0.62;1.70;0.80;;;20.40;28.80;;;;;;2251322;61;20907;-60
2023/01/12 06:29:49;0.00;0.00;0.62;0.00;0.00;0.62;1.53;0.90;;;20.40;28.80;;;;;;2251512;61;20842;-59
2023/01/12 06:32:34;0.00;0.00;0.62;0.00;0.00;0.62;1.80;0.97;;;20.40;28.80;;;;;;2251988;61;20418;-61
2023/01/12 06:35:19;0.00;0.00;0.62;0.00;0.00;0.62;2.57;0.90;;;20.40;28.80;;;;;;2251560;61;20387;-61
2023/01/12 06:38:04;0.00;0.00;0.62;0.00;0.00;0.62;2.40;1.07;;;20.40;28.80;;;;;;2251853;61;20367;-60
2023/01/12 06:40:49;0.00;0.00;0.62;0.00;0.00;0.62;1.67;0.70;;;20.30;28.80;;;;;;2251535;61;20359;-61
2023/01/12 06:43:36;0.00;0.00;0.62;0.00;0.00;0.62;1.73;0.80;;;20.30;28.80;;;;;;2251471;61;20494;-59
2023/01/12 06:46:21;0.00;0.00;0.62;0.00;0.00;0.62;2.33;0.80;;;20.30;28.80;;;;;;2251643;61;20370;-56
2023/01/12 06:49:05;0.00;0.00;0.62;0.00;0.00;0.62;1.67;0.70;;;20.30;28.80;;;;;;2251286;61;20830;-61
2023/01/12 06:51:51;0.00;0.00;0.62;0.00;0.00;0.62;1.87;0.80;;;20.30;28.80;;;;;;2251664;61;20387;-60
2023/01/12 06:54:36;0.00;0.00;0.62;0.00;0.00;0.62;1.60;0.70;;;20.30;28.80;;;;;;2252062;61;20830;-59
2023/01/12 06:57:20;0.00;0.00;0.62;0.00;0.00;0.62;1.83;0.90;;;20.30;28.80;;;;;;2251318;61;20938;-60
2023/01/12 07:00:12;0.00;0.00;0.62;0.00;0.00;0.62;1.53;0.80;;;20.30;28.80;;;;;;2251453;61;20886;-58
2023/01/12 07:02:57;0.00;0.00;0.62;0.00;0.00;0.62;1.70;0.70;;;20.20;28.70;;;;;;2250972;61;20453;-58
2023/01/12 07:05:42;0.00;0.00;0.62;0.00;0.00;0.62;1.93;0.70;;;20.20;28.70;;;;;;2251334;61;20398;-60
2023/01/12 07:08:27;0.00;0.00;0.62;0.00;0.00;0.62;2.00;0.77;;;20.20;28.80;;;;;;2251495;61;20449;-60
2023/01/12 07:11:13;0.00;0.00;0.62;0.00;0.00;0.62;1.40;0.70;;;20.10;28.80;;;;;;2251568;61;20363;-58
2023/01/12 07:13:58;0.00;0.00;0.62;0.00;0.00;0.62;1.50;0.80;;;20.10;28.80;;;;;;2250975;61;20366;-58
2023/01/12 07:16:45;0.00;0.00;0.62;0.00;0.00;0.62;2.03;1.10;;;20.10;28.90;;;;;;2251683;61;20394;-54
2023/01/12 07:19:29;0.00;0.00;0.62;0.00;0.00;0.62;1.80;0.93;;;20.10;28.90;;;;;;2251641;61;20882;-57
2023/01/12 07:22:14;0.00;0.00;0.62;0.00;0.00;0.62;1.70;0.73;;;20.10;28.90;;;;;;2252139;61;20930;-58
2023/01/12 07:24:59;0.00;0.00;0.62;0.00;0.00;0.62;1.30;0.60;;;20.10;28.90;;;;;;2252231;61;20836;-56
2023/01/12 07:27:48;0.00;0.00;0.62;0.00;0.00;0.62;5.20;0.70;;;20.10;28.90;;;;;;2251815;61;20366;-59
2023/01/12 07:30:33;0.00;0.00;0.62;0.00;0.00;0.62;1.80;0.70;;;20.10;29.00;;;;;;2252558;61;20776;-57
2023/01/12 07:33:19;0.00;0.00;0.62;0.00;0.00;0.62;1.50;0.70;;;20.10;29.00;;;;;;2252326;61;20410;-55
2023/01/12 07:36:04;0.00;0.00;0.62;0.00;0.00;0.62;2.30;1.00;;;20.10;29.60;;;;;;2251558;61;20382;-60
2023/01/12 07:38:49;0.00;0.00;0.62;0.00;0.00;0.62;1.40;0.80;;;20.10;29.00;;;;;;2252362;61;21239;-60
2023/01/12 07:44:39;0.00;0.00;0.62;0.00;0.00;0.62;1.50;0.80;;;20.10;29.00;;;;;;2252413;61;20898;-60
2023/01/12 07:47:26;0.00;0.00;0.62;0.00;0.00;0.62;1.47;0.77;;;20.10;29.00;;;;;;2252906;61;20382;-58
2023/01/12 07:50:12;0.00;0.00;0.62;0.00;0.00;0.62;1.40;0.77;;;20.10;29.00;;;;;;2255734;61;20817;-56
2023/01/12 07:53:01;0.00;0.00;0.62;0.00;0.00;0.62;3.40;0.83;;;20.10;29.00;;;;;;2256357;61;20457;-58
2023/01/12 07:55:45;0.00;0.00;0.62;0.00;0.00;0.62;1.60;0.80;;;20.10;29.00;;;;;;2255429;61;20434;-59
2023/01/12 07:58:30;0.00;0.00;0.62;0.00;0.00;0.62;2.27;1.10;;;20.00;28.90;;;;;;2255828;61;20390;-59
2023/01/12 08:01:16;0.00;0.00;0.62;0.00;0.00;0.62;2.13;1.10;;;20.00;29.00;;;;;;2256486;61;20363;-59
2023/01/12 08:04:02;0.00;0.00;0.62;0.00;0.00;0.62;2.10;0.70;;;20.00;29.00;;;;;;2255887;61;20413;-59
2023/01/12 08:06:49;0.00;0.00;0.62;0.00;0.00;0.62;1.60;0.90;;;20.00;29.00;;;;;;2255393;61;20406;-60
2023/01/12 08:09:34;0.00;0.00;0.62;0.00;0.00;0.62;1.60;0.80;;;20.00;29.00;;;;;;2256151;61;20425;-56
2023/01/12 08:12:18;0.00;0.00;0.62;0.00;0.00;0.62;1.50;0.80;;;20.00;29.10;;;;;;2255623;61;20833;-59
2023/01/12 08:15:05;0.00;0.00;0.62;0.00;0.00;0.62;1.65;0.75;;;20.00;29.10;;;;;;2255872;61;20793;-57
2023/01/12 08:17:56;0.00;0.00;0.62;0.00;0.00;0.62;1.50;0.70;;;20.00;29.10;;;;;;2252419;61;20445;-58
2023/01/12 08:20:42;0.00;0.00;0.62;0.00;0.00;0.62;1.30;0.70;;;20.00;29.10;;;;;;2252918;61;20391;-61
2023/01/12 08:23:32;0.00;0.00;0.62;0.00;0.00;0.62;1.50;0.70;;;20.00;29.00;;;;;;2254062;61;20469;-58
2023/01/12 08:26:22;0.00;0.00;0.62;0.00;0.00;0.62;3.07;1.03;;;20.00;29.00;;;;;;2251508;61;20366;-56
2023/01/12 08:29:14;0.00;0.00;0.62;0.00;0.00;0.62;1.20;0.60;;;19.90;28.90;;;;;;2443919;53;20909;-58
2023/01/12 08:32:03;0.00;0.00;0.62;0.00;0.00;0.62;2.23;0.80;;;19.90;29.50;;;;;;2252373;61;20383;-56
2023/01/12 08:34:52;0.00;0.00;0.62;0.00;0.00;0.62;1.20;0.60;;;19.90;29.00;;;;;;2252236;61;20902;-56
2023/01/12 08:37:37;0.00;0.00;0.62;0.00;0.00;0.62;1.40;0.70;;;19.90;29.00;;;;;;2253099;61;20435;-59
2023/01/12 08:41:31;0.00;0.00;0.62;0.00;0.00;0.62;1.30;0.60;;;19.80;28.80;;;;;;2253207;61;20379;-57
2023/01/12 08:46:35;0.00;0.00;0.62;0.00;0.00;0.62;1.30;0.60;;;19.70;29.00;;;;;;2253553;61;20431;-58
2023/01/12 08:49:23;0.00;0.00;0.62;0.00;0.00;0.62;1.50;0.70;;;19.80;29.00;;;;;;2250560;61;20405;-59
2023/01/12 08:52:07;0.00;0.00;0.62;0.00;0.00;0.62;1.40;0.60;;;19.70;29.00;;;;;;2250081;61;20389;-60
2023/01/12 08:54:52;0.00;0.00;0.62;0.00;0.00;0.62;4.80;0.77;;;19.70;29.00;;;;;;2251449;61;20474;-55
2023/01/12 08:57:38;0.00;0.00;0.62;0.00;0.00;0.62;1.40;0.60;;;19.70;29.20;;;;;;2253587;61;20394;-54
2023/01/12 09:00:23;0.00;0.00;0.62;0.00;0.00;0.62;1.47;0.60;;;19.70;29.20;;;;;;2253990;61;20371;-55
2023/01/12 09:03:07;0.00;0.00;0.62;0.00;0.00;0.62;1.30;0.70;;;19.80;29.30;;;;;;2253690;61;20845;-58
2023/01/12 09:05:52;0.00;0.00;0.62;0.00;0.00;0.62;1.30;0.60;;;19.80;29.30;;;;;;2254245;61;20402;-57
2023/01/12 09:08:36;0.00;0.00;0.62;0.00;0.00;0.62;1.40;0.60;;;19.90;29.30;;;;;;2254294;61;20358;-54
2023/01/12 09:11:23;0.00;0.00;0.62;0.00;0.00;0.62;1.60;0.60;;;19.90;29.20;;;;;;2255686;61;20357;-54
2023/01/12 09:14:11;0.00;0.00;0.62;0.00;0.00;0.62;1.30;0.70;;;20.00;29.20;;;;;;2258638;61;20369;-57
2023/01/12 09:16:55;0.00;0.00;0.62;0.00;0.00;0.62;1.27;0.60;;;20.00;29.20;;;;;;2257440;61;20390;-57
2023/01/12 09:19:43;0.00;0.00;0.62;0.00;0.00;0.62;1.27;0.67;;;20.00;29.20;;;;;;2257801;61;20393;-55
2023/01/12 09:22:28;0.00;0.00;0.62;0.00;0.00;0.62;1.20;0.60;;;20.10;29.70;;;;;;2257005;61;20374;-53
2023/01/12 09:25:13;0.00;0.00;0.62;0.00;0.00;0.62;1.20;0.60;;;20.10;29.20;;;;;;2258064;61;20424;-56
2023/01/12 09:27:59;0.00;0.00;0.62;0.00;0.00;0.62;1.20;0.60;;;20.20;29.20;;;;;;2258076;61;20396;-61
2023/01/12 09:30:45;0.00;0.00;0.62;0.00;0.00;0.62;1.40;0.60;;;20.20;29.30;;;;;;2257813;61;20405;-52
2023/01/12 09:33:30;0.00;0.00;0.62;0.00;0.00;0.62;1.20;0.60;;;20.20;29.30;;;;;;2252403;61;20949;-55
2023/01/12 09:36:19;0.00;0.00;0.62;0.00;0.00;0.62;1.20;0.60;;;20.20;29.20;;;;;;2256734;61;20440;-56
2023/01/12 09:39:06;0.00;0.00;0.62;0.00;0.00;0.62;1.57;0.70;;;20.20;29.20;;;;;;2255820;61;20362;-55
2023/01/12 09:48:01;0.00;0.00;0.62;0.00;0.00;0.62;1.40;0.60;;;20.20;29.20;;;;;;2255113;61;20401;-59
2023/01/12 09:50:54;0.00;0.00;0.62;0.00;0.00;0.62;1.30;0.70;;;20.10;29.10;;;;;;2256797;61;20941;-56
2023/01/12 09:53:41;0.00;0.00;0.62;0.00;0.00;0.62;1.30;0.63;;;20.10;29.20;;;;;;2256462;61;20441;-50
2023/01/12 09:56:31;0.00;0.00;0.62;0.00;0.00;0.62;1.60;0.70;;;20.10;29.20;;;;;;2256349;61;20386;-56
2023/01/12 09:59:37;0.00;0.00;0.62;0.00;0.00;0.62;1.20;0.50;;;20.10;29.30;;;;;;2257164;61;20428;-55
2023/01/12 10:02:25;0.00;0.00;0.62;0.00;0.00;0.62;1.30;0.60;;;20.00;29.30;;;;;;2255314;61;20797;-54
2023/01/12 10:05:27;0.00;0.00;0.62;0.00;0.00;0.62;1.20;0.70;;;20.10;29.40;;;;;;2254275;61;20873;-53
2023/01/12 10:08:21;0.00;0.00;0.62;0.00;0.00;0.62;1.37;0.60;;;20.00;29.40;;;;;;2256932;61;20470;-57
2023/01/12 10:11:15;0.00;0.00;0.62;0.00;0.00;0.62;1.43;0.63;;;20.00;29.40;;;;;;2256753;61;20404;-58
2023/01/12 10:14:50;0.00;0.00;0.62;0.00;0.00;0.62;1.40;0.60;;;20.00;29.50;;;;;;2482678;53;20889;-58
2023/01/12 10:17:45;0.00;0.00;0.62;0.00;0.00;0.62;1.20;0.60;;;20.00;29.60;;;;;;2248039;61;20391;-51
2023/01/12 10:20:36;0.00;0.00;0.62;0.00;0.00;0.62;1.40;0.70;;;20.00;29.60;;;;;;2248913;61;20399;-55
2023/01/12 10:23:27;0.00;0.00;0.62;0.00;0.00;0.62;1.20;0.50;;;20.00;29.70;;;;;;2251451;61;20399;-54
2023/01/12 10:26:20;0.00;0.00;0.62;0.00;0.00;0.62;1.60;0.70;;;20.00;29.80;;;;;;2251432;61;20370;-54
2023/01/12 10:29:10;0.00;0.00;0.62;0.00;0.00;0.62;2.07;0.90;;;20.00;29.80;;;;;;2252851;61;20362;-54
2023/01/12 10:31:55;0.00;0.00;0.62;0.00;0.00;0.62;1.20;0.60;;;19.90;29.80;;;;;;2251451;61;20391;-57
2023/01/12 10:34:51;0.00;0.00;0.62;0.00;0.00;0.62;1.20;0.60;;;20.00;29.90;;;;;;2251975;61;20774;-53
2023/01/12 10:37:45;0.00;0.00;0.62;0.00;0.00;0.62;1.50;0.60;;;20.00;29.90;;;;;;2251422;61;20825;-57
2023/01/12 10:40:33;0.00;0.00;0.62;0.00;0.00;0.62;1.20;0.60;;;20.00;29.80;;;;;;2251818;61;20398;-54
2023/01/12 10:43:18;0.00;0.00;0.62;0.00;0.00;0.62;1.27;0.60;;;20.10;29.80;;;;;;2251605;61;20453;-55
2023/01/12 10:46:12;0.00;0.00;0.62;0.00;0.00;0.62;1.20;0.50;;;20.10;29.80;;;;;;2251410;61;20386;-57
2023/01/12 10:49:16;0.00;0.00;0.62;0.00;0.00;0.62;1.20;0.57;;;20.10;29.70;;;;;;2251813;61;20391;-55
2023/01/12 10:52:19;0.00;0.00;0.62;0.00;0.00;0.62;1.20;0.50;;;20.20;29.70;;;;;;2251671;61;20394;-52
2023/01/12 10:54:48;0.00;0.00;0.62;0.00;0.00;0.62;2.57;0.80;;;20.30;29.70;;;;;;2251160;61;20458;-50
2023/01/12 10:57:21;0.00;0.00;0.62;0.00;0.00;0.62;1.20;0.60;;;20.30;29.60;;;;;;2251624;61;20455;-54
2023/01/12 10:59:52;0.00;0.00;0.62;0.00;0.00;0.62;1.20;0.60;;;20.40;29.70;;;;;;2252301;61;20395;-53
2023/01/12 11:02:42;0.00;0.00;0.62;0.00;0.00;0.62;3.87;0.73;;;20.40;29.60;;;;;;2251422;61;20438;-54
2023/01/12 11:05:37;0.00;0.00;0.62;0.00;0.00;0.62;1.30;0.60;;;20.40;29.60;;;;;;2251962;61;20366;-58
2023/01/12 11:08:24;0.00;0.00;0.62;0.00;0.00;0.62;1.20;0.60;;;20.50;29.60;;;;;;2251057;61;20422;-54
2023/01/12 11:11:28;0.00;0.00;0.62;0.00;0.00;0.62;1.70;0.60;;;20.60;29.70;;;;;;2250808;61;20873;-55
2023/01/12 11:14:24;0.00;0.00;0.62;0.00;0.00;0.62;1.20;0.60;;;20.60;29.60;;;;;;2251967;61;20960;-58
2023/01/12 11:17:47;0.00;0.00;0.62;0.00;0.00;0.62;1.20;0.60;;;20.60;29.60;;;;;;2251176;61;20430;-53
2023/01/12 11:20:39;0.00;0.00;0.62;0.00;0.00;0.62;1.20;0.60;;;20.70;29.60;;;;;;2251825;61;20902;-55
2023/01/12 11:23:33;0.00;0.00;0.62;0.00;0.00;0.62;1.20;0.60;;;20.70;29.60;;;;;;2251507;61;20386;-58
2023/01/12 11:26:29;0.00;0.00;0.62;0.00;0.00;0.62;1.30;0.60;;;20.70;29.60;;;;;;2252270;61;20394;-54
2023/01/12 11:29:30;0.00;0.00;0.62;0.00;0.00;0.62;1.30;0.60;;;20.80;29.60;;;;;;2251871;61;20410;-56
2023/01/12 11:32:23;0.00;0.00;0.62;0.00;0.00;0.62;1.30;0.70;;;20.80;29.50;;;;;;2251002;61;20426;-57
2023/01/12 11:35:28;0.00;0.00;0.62;0.00;0.00;0.62;1.50;0.80;;;20.90;30.10;;;;;;2252149;61;20409;-54
2023/01/12 11:38:19;0.00;0.00;0.62;0.00;0.00;0.62;2.07;0.90;;;20.90;29.60;;;;;;2250423;61;20374;-58